createdAt,value
2023-01-04T00:01:42.807Z,61.03
2023-01-04T00:04:10.035Z,60.19
2023-01-04T00:06:37.363Z,60.21
2023-01-04T00:09:04.629Z,60.45
2023-01-04T00:11:31.724Z,60.92
2023-01-04T00:13:59.582Z,61.45
2023-01-04T00:16:27.742Z,61.85
2023-01-04T00:18:54.972Z,61.62
2023-01-04T00:21:26.665Z,60.37
2023-01-04T00:23:54.759Z,59.70
2023-01-04T00:26:26.397Z,59.65
2023-01-04T00:28:57.832Z,60.10
2023-01-04T00:31:26.392Z,60.51
2023-01-04T00:33:54.509Z,61.09
2023-01-04T00:36:21.739Z,61.61
2023-01-04T00:39:07.670Z,61.99
2023-01-04T00:41:58.823Z,62.14
2023-01-04T00:44:26.910Z,60.79
2023-01-04T00:46:54.261Z,60.45
2023-01-04T00:49:21.308Z,60.76
2023-01-04T00:51:48.273Z,60.91
2023-01-04T00:54:15.976Z,61.19
2023-01-04T00:56:43.212Z,61.67
2023-01-04T00:59:11.161Z,62.47
2023-01-04T01:01:39.190Z,62.58
2023-01-04T01:04:06.456Z,61.41
2023-01-04T01:06:35.301Z,60.84
2023-01-04T01:09:02.549Z,60.89
2023-01-04T01:11:29.769Z,60.90
2023-01-04T01:13:57.500Z,61.33
2023-01-04T01:16:53.008Z,62.01
2023-01-04T01:19:12.199Z,62.93
2023-01-04T01:21:39.098Z,62.75
2023-01-04T01:24:06.200Z,61.37
2023-01-04T01:26:37.450Z,60.51
2023-01-04T01:29:04.381Z,60.44
2023-01-04T01:31:31.382Z,60.99
2023-01-04T01:33:58.459Z,61.41
2023-01-04T01:36:26.132Z,61.64
2023-01-04T01:38:53.668Z,61.89
2023-01-04T01:41:22.987Z,62.27
2023-01-04T01:43:53.102Z,63.01
2023-01-04T01:46:23.264Z,63.40
2023-01-04T01:48:52.447Z,62.07
2023-01-04T01:51:19.793Z,61.59
2023-01-04T01:53:47.959Z,61.36
2023-01-04T01:56:16.258Z,61.89
2023-01-04T01:58:45.637Z,62.04
2023-01-04T02:01:13.297Z,62.34
2023-01-04T02:03:42.671Z,62.64
2023-01-04T02:06:11.934Z,63.00
2023-01-04T02:08:40.350Z,63.35
2023-01-04T02:11:07.277Z,62.06
2023-01-04T02:13:55.358Z,61.22
2023-01-04T02:16:47.387Z,61.53
2023-01-04T02:19:29.724Z,62.15
2023-01-04T02:22:09.371Z,62.56
2023-01-04T02:24:50.813Z,63.45
2023-01-04T02:27:24.766Z,63.91
2023-01-04T02:30:03.965Z,63.88
2023-01-04T02:33:04.060Z,62.67
2023-01-04T02:35:50.163Z,62.05
2023-01-04T02:38:27.998Z,62.31
2023-01-04T02:41:20.834Z,62.62
2023-01-04T02:44:14.937Z,63.02
2023-01-04T02:46:50.625Z,63.52
2023-01-04T02:49:36.487Z,63.80
2023-01-04T02:52:03.458Z,63.57
2023-01-04T02:54:32.604Z,62.21
2023-01-04T02:57:14.682Z,61.51
2023-01-04T02:59:53.613Z,61.82
2023-01-04T03:02:42.372Z,62.32
2023-01-04T03:05:33.520Z,62.74
2023-01-04T03:08:23.594Z,63.21
2023-01-04T03:11:26.453Z,63.53
2023-01-04T03:13:54.082Z,63.19
2023-01-04T03:16:23.686Z,61.91
2023-01-04T03:18:53.020Z,61.48
2023-01-04T03:21:20.199Z,61.44
2023-01-04T03:24:25.843Z,61.36
2023-01-04T03:27:13.514Z,61.85
2023-01-04T03:30:26.277Z,62.46
2023-01-04T03:33:17.262Z,63.53
2023-01-04T03:36:19.705Z,64.60
2023-01-04T03:39:10.529Z,63.79
2023-01-04T03:42:20.088Z,62.57
2023-01-04T03:45:32.886Z,62.29
2023-01-04T03:48:29.570Z,62.90
2023-01-04T03:51:07.700Z,63.36
2023-01-04T03:53:38.451Z,63.92
2023-01-04T03:56:05.544Z,64.49
2023-01-04T03:58:32.592Z,64.78
2023-01-04T04:01:04.037Z,63.33
2023-01-04T04:03:50.713Z,62.45
2023-01-04T04:06:36.841Z,61.91
2023-01-04T04:09:04.621Z,62.12
2023-01-04T04:11:31.605Z,62.62
2023-01-04T04:13:59.360Z,63.20
2023-01-04T04:16:27.692Z,64.07
2023-01-04T04:18:55.052Z,64.75
2023-01-04T04:21:22.207Z,65.13
2023-01-04T04:23:49.316Z,64.12
2023-01-04T04:26:16.542Z,63.69
2023-01-04T04:28:43.671Z,64.26
2023-01-04T04:31:10.661Z,64.59
2023-01-04T04:33:37.894Z,64.67
2023-01-04T04:36:05.343Z,64.92
2023-01-04T04:38:33.257Z,65.46
2023-01-04T04:41:18.906Z,65.73
2023-01-04T04:43:48.485Z,64.40
2023-01-04T04:46:15.579Z,63.73
2023-01-04T04:48:42.518Z,63.99
2023-01-04T04:51:12.709Z,64.52
2023-01-04T04:53:39.616Z,65.22
2023-01-04T04:56:07.662Z,65.98
2023-01-04T04:58:34.765Z,65.92
2023-01-04T05:01:01.896Z,64.94
2023-01-04T05:03:29.225Z,64.58
2023-01-04T05:05:58.984Z,64.57
2023-01-04T05:08:26.103Z,64.81
2023-01-04T05:10:54.324Z,65.49
2023-01-04T05:13:21.343Z,66.12
2023-01-04T05:15:51.480Z,66.14
2023-01-04T05:18:19.796Z,64.83
2023-01-04T05:20:47.165Z,64.24
2023-01-04T05:23:14.890Z,64.32
2023-01-04T05:25:41.882Z,64.67
2023-01-04T05:28:09.289Z,65.28
2023-01-04T05:30:51.268Z,65.71
2023-01-04T05:33:28.827Z,65.65
2023-01-04T05:35:57.931Z,64.40
2023-01-04T05:38:25.426Z,64.11
2023-01-04T05:40:52.624Z,64.63
2023-01-04T05:43:21.047Z,64.88
2023-01-04T05:45:50.283Z,65.73
2023-01-04T05:48:18.065Z,66.30
2023-01-04T05:50:48.077Z,66.19
2023-01-04T05:53:17.681Z,64.74
2023-01-04T05:55:45.664Z,63.97
2023-01-04T05:58:13.579Z,64.13
2023-01-04T06:00:40.548Z,64.60
2023-01-04T06:03:07.566Z,65.17
2023-01-04T06:05:34.519Z,65.65
2023-01-04T06:08:01.408Z,65.46
2023-01-04T06:10:28.370Z,64.25
2023-01-04T06:12:56.442Z,63.57
2023-01-04T06:15:23.715Z,63.77
2023-01-04T06:17:50.613Z,63.96
2023-01-04T06:20:17.862Z,64.43
2023-01-04T06:22:44.775Z,64.75
2023-01-04T06:25:11.773Z,65.23
2023-01-04T06:27:39.571Z,64.94
2023-01-04T06:30:07.051Z,63.75
2023-01-04T06:32:34.120Z,62.94
2023-01-04T06:35:01.306Z,62.66
2023-01-04T06:37:28.270Z,62.68
2023-01-04T06:39:55.463Z,63.23
2023-01-04T06:42:41.069Z,63.50
2023-01-04T06:45:08.408Z,64.40
2023-01-04T06:47:35.434Z,64.05
2023-01-04T06:50:02.488Z,62.46
2023-01-04T06:52:29.844Z,61.69
2023-01-04T06:54:56.785Z,61.48
2023-01-04T06:57:24.163Z,62.33
2023-01-04T06:59:51.087Z,62.60
2023-01-04T07:02:18.058Z,63.00
2023-01-04T07:04:46.579Z,63.53
2023-01-04T07:07:13.470Z,63.42
2023-01-04T07:09:40.520Z,62.07
2023-01-04T07:12:07.468Z,61.21
2023-01-04T07:14:34.475Z,61.10
2023-01-04T07:17:01.547Z,61.38
2023-01-04T07:19:28.598Z,61.70
2023-01-04T07:21:55.942Z,62.30
2023-01-04T07:24:29.587Z,63.01
2023-01-04T07:26:58.943Z,62.95
2023-01-04T07:29:25.799Z,61.39
2023-01-04T07:31:53.137Z,60.59
2023-01-04T07:34:22.079Z,60.45
2023-01-04T07:36:49.150Z,60.35
2023-01-04T07:39:17.602Z,60.59
2023-01-04T07:41:45.177Z,60.84
2023-01-04T07:44:13.703Z,61.23
2023-01-04T07:46:41.417Z,61.43
2023-01-04T07:49:16.729Z,61.16
2023-01-04T07:51:45.190Z,59.08
2023-01-04T07:54:12.237Z,58.56
2023-01-04T07:56:39.107Z,58.52
2023-01-04T07:59:06.991Z,58.58
2023-01-04T08:01:35.740Z,58.62
2023-01-04T08:04:02.717Z,59.32
2023-01-04T08:06:29.716Z,59.68
2023-01-04T08:08:59.571Z,59.98
2023-01-04T08:11:26.432Z,60.18
2023-01-04T08:13:53.526Z,59.95
2023-01-04T08:16:22.955Z,57.79
2023-01-04T08:18:55.931Z,57.06
2023-01-04T08:21:23.147Z,57.01
2023-01-04T08:23:50.150Z,56.28
2023-01-04T08:26:17.235Z,56.84
2023-01-04T08:28:44.589Z,57.59
2023-01-04T08:31:16.436Z,57.65
2023-01-04T08:33:43.738Z,58.13
2023-01-04T08:36:28.047Z,58.09
2023-01-04T08:38:59.857Z,58.57
2023-01-04T08:44:20.408Z,57.51
2023-01-04T08:46:47.785Z,55.95
2023-01-04T08:49:15.102Z,55.30
2023-01-04T08:51:42.297Z,54.92
2023-01-04T08:54:09.559Z,55.02
2023-01-04T08:56:36.721Z,55.55
2023-01-04T08:59:05.087Z,55.84
2023-01-04T09:01:33.716Z,56.33
2023-01-04T09:04:01.446Z,55.88
2023-01-04T09:06:28.992Z,56.44
2023-01-04T09:08:56.655Z,55.94
2023-01-04T09:11:23.897Z,56.38
2023-01-04T09:14:04.584Z,56.17
2023-01-04T09:16:34.391Z,55.97
2023-01-04T09:19:01.623Z,57.06
2023-01-04T09:21:29.075Z,55.92
2023-01-04T09:23:57.252Z,54.02
2023-01-04T09:26:24.282Z,53.17
2023-01-04T09:28:55.208Z,52.49
2023-01-04T09:31:24.443Z,52.40
2023-01-04T09:36:39.476Z,53.35
2023-01-04T09:39:06.519Z,53.38
2023-01-04T09:41:56.828Z,53.96
2023-01-04T09:44:54.539Z,53.43
2023-01-04T09:47:14.968Z,53.68
2023-01-04T09:49:45.859Z,53.26
2023-01-04T09:52:18.393Z,53.57
2023-01-04T09:54:48.154Z,53.67
2023-01-04T09:57:21.983Z,53.87
2023-01-04T09:59:48.956Z,54.21
2023-01-04T10:02:23.256Z,53.35
2023-01-04T10:04:50.609Z,53.84
2023-01-04T10:07:27.342Z,52.95
2023-01-04T10:09:55.484Z,53.60
2023-01-04T10:13:12.409Z,53.29
2023-01-04T10:15:56.074Z,53.74
2023-01-04T10:19:51.085Z,53.30
2023-01-04T10:21:43.484Z,53.72
2023-01-04T10:24:29.606Z,53.44
2023-01-04T10:27:19.999Z,53.30
2023-01-04T10:30:21.750Z,53.34
2023-01-04T10:32:58.757Z,51.59
2023-01-04T10:35:27.273Z,52.72
2023-01-04T10:37:57.743Z,51.96
2023-01-04T10:40:26.166Z,52.28
2023-01-04T10:42:56.429Z,51.84
2023-01-04T10:45:36.086Z,51.71
2023-01-04T10:48:06.785Z,51.71
2023-01-04T10:50:46.653Z,52.08
2023-01-04T10:53:20.831Z,51.95
2023-01-04T10:56:25.914Z,51.52
2023-01-04T10:58:49.280Z,52.49
2023-01-04T11:01:37.932Z,52.33
2023-01-04T11:04:12.503Z,50.82
2023-01-04T11:06:46.882Z,51.23
2023-01-04T11:09:22.790Z,51.85
2023-01-04T11:11:53.297Z,52.44
2023-01-04T11:14:20.288Z,51.86
2023-01-04T11:16:49.031Z,52.72
2023-01-04T11:19:16.250Z,51.32
2023-01-04T11:21:46.913Z,51.81
2023-01-04T11:24:31.652Z,48.74
2023-01-04T11:27:07.795Z,46.75
2023-01-04T11:29:42.125Z,45.88
2023-01-04T11:32:16.830Z,44.73
2023-01-04T11:34:44.847Z,44.92
2023-01-04T11:37:35.625Z,44.07
2023-01-04T11:40:18.375Z,43.73
2023-01-04T11:42:46.583Z,43.58
2023-01-04T11:45:24.328Z,42.78
2023-01-04T11:47:55.848Z,41.78
2023-01-04T11:50:40.415Z,40.83
2023-01-04T11:53:27.555Z,38.57
2023-01-04T11:56:14.562Z,37.85
2023-01-04T11:58:41.866Z,38.78
2023-01-04T12:01:20.431Z,38.83
2023-01-04T12:03:47.536Z,37.75
2023-01-04T12:06:28.571Z,39.45
2023-01-04T12:08:55.647Z,36.61
2023-01-04T12:11:26.749Z,37.37
2023-01-04T13:09:03.851Z,45.03
2023-01-04T13:11:46.172Z,43.01
2023-01-04T13:14:21.581Z,42.79
2023-01-04T13:17:12.015Z,42.11
2023-01-04T13:19:39.105Z,41.80
2023-01-04T13:22:10.806Z,42.08
2023-01-04T13:24:39.095Z,42.33
2023-01-04T13:27:10.428Z,42.33
2023-01-04T13:29:40.290Z,42.61
2023-01-04T13:32:12.051Z,42.56
2023-01-04T13:34:39.659Z,42.66
2023-01-04T13:37:17.310Z,42.15
2023-01-04T13:39:49.119Z,41.85
2023-01-04T13:42:29.581Z,42.56
2023-01-04T13:45:20.136Z,43.10
2023-01-04T13:47:49.284Z,43.59
2023-01-04T13:50:34.458Z,44.11
2023-01-04T13:53:07.904Z,44.52
2023-01-04T13:55:37.345Z,44.66
2023-01-04T13:58:06.541Z,44.99
2023-01-04T14:00:43.235Z,46.03
2023-01-04T14:03:10.474Z,46.78
2023-01-04T14:05:38.045Z,46.98
2023-01-04T14:08:11.648Z,48.28
2023-01-04T14:10:42.563Z,48.55
2023-01-04T14:13:14.285Z,48.80
2023-01-04T14:15:41.462Z,50.08
2023-01-04T14:18:28.850Z,50.74
2023-01-04T14:20:55.755Z,51.73
2023-01-04T14:23:33.151Z,52.20
2023-01-04T14:26:00.025Z,52.12
2023-01-04T14:31:27.971Z,53.06
2023-01-04T14:33:55.779Z,53.85
2023-01-04T14:36:30.591Z,54.20
2023-01-04T14:38:58.954Z,54.10
2023-01-04T14:41:32.848Z,54.50
2023-01-04T14:44:00.858Z,55.35
2023-01-04T14:46:28.920Z,55.07
2023-01-04T14:48:55.848Z,56.07
2023-01-04T14:51:34.367Z,57.00
2023-01-04T14:54:01.344Z,57.52
2023-01-04T14:56:28.413Z,56.88
2023-01-04T14:58:55.482Z,58.44
2023-01-04T15:01:22.774Z,59.95
2023-01-04T15:03:49.971Z,58.60
2023-01-04T15:06:17.108Z,58.46
2023-01-04T15:08:45.495Z,58.79
2023-01-04T15:11:13.312Z,58.55
2023-01-04T15:13:40.809Z,58.62
2023-01-04T15:16:09.416Z,59.20
2023-01-04T15:18:36.412Z,59.18
2023-01-04T15:21:04.140Z,59.77
2023-01-04T15:23:31.580Z,60.48
2023-01-04T15:26:05.738Z,60.73
2023-01-04T15:28:34.901Z,61.50
2023-01-04T15:31:06.445Z,61.93
2023-01-04T15:33:35.717Z,62.14
2023-01-04T15:36:04.147Z,60.90
2023-01-04T15:38:31.117Z,60.13
2023-01-04T15:41:02.933Z,60.37
2023-01-04T15:43:35.972Z,61.04
2023-01-04T15:46:04.999Z,61.36
2023-01-04T15:48:32.158Z,62.07
2023-01-04T15:51:02.911Z,62.50
2023-01-04T15:53:29.770Z,63.45
2023-01-04T15:56:07.143Z,64.54
2023-01-04T15:58:34.316Z,64.74
2023-01-04T16:01:08.034Z,64.36
2023-01-04T16:03:36.103Z,62.29
2023-01-04T16:06:11.244Z,61.08
2023-01-04T16:08:38.379Z,61.04
2023-01-04T16:11:23.687Z,60.97
2023-01-04T16:13:52.337Z,61.54
2023-01-04T16:16:20.208Z,61.78
2023-01-04T16:18:48.795Z,62.59
2023-01-04T16:21:16.776Z,62.97
2023-01-04T16:23:43.664Z,63.34
2023-01-04T16:26:12.800Z,62.33
2023-01-04T16:28:40.021Z,61.57
2023-01-04T16:31:07.678Z,61.32
2023-01-04T16:33:35.797Z,61.25
2023-01-04T16:36:07.430Z,61.70
2023-01-04T16:38:42.055Z,62.17
2023-01-04T16:41:11.330Z,62.91
2023-01-04T16:43:48.661Z,63.02
2023-01-04T16:46:19.303Z,63.42
2023-01-04T16:48:55.423Z,62.06
2023-01-04T16:51:23.411Z,61.58
2023-01-04T16:53:50.599Z,61.56
2023-01-04T16:56:21.549Z,61.93
2023-01-04T16:58:48.469Z,62.33
2023-01-04T17:01:20.121Z,62.74
2023-01-04T17:03:47.951Z,63.18
2023-01-04T17:06:19.939Z,63.94
2023-01-04T17:08:47.713Z,64.05
2023-01-04T17:12:04.929Z,62.85
2023-01-04T17:14:10.207Z,61.84
2023-01-04T17:16:37.768Z,61.83
2023-01-04T17:19:04.731Z,62.68
2023-01-04T17:21:35.540Z,62.89
2023-01-04T17:24:03.252Z,63.41
2023-01-04T17:26:31.304Z,63.46
2023-01-04T17:28:58.614Z,64.99
2023-01-04T17:31:27.847Z,65.29
2023-01-04T17:33:55.023Z,63.61
2023-01-04T17:36:22.270Z,62.35
2023-01-04T17:38:49.432Z,62.26
2023-01-04T17:41:21.391Z,62.53
2023-01-04T17:43:50.836Z,63.21
2023-01-04T17:46:23.169Z,64.01
2023-01-04T17:49:17.672Z,64.74
2023-01-04T17:51:39.473Z,65.00
2023-01-04T17:54:06.486Z,63.62
2023-01-04T17:56:34.600Z,63.48
2023-01-04T17:59:02.797Z,64.29
2023-01-04T18:01:30.093Z,64.38
2023-01-04T18:03:57.884Z,65.36
2023-01-04T18:06:35.433Z,65.07
2023-01-04T18:09:03.662Z,66.79
2023-01-04T18:11:30.966Z,65.81
2023-01-04T18:13:57.904Z,63.88
2023-01-04T18:16:26.845Z,63.70
2023-01-04T18:18:54.579Z,64.46
2023-01-04T18:21:28.336Z,65.55
2023-01-04T18:29:33.658Z,65.58
2023-01-04T18:32:00.719Z,63.96
2023-01-04T18:34:27.690Z,63.92
2023-01-04T18:36:55.958Z,64.38
2023-01-04T18:39:22.954Z,64.78
2023-01-04T18:41:49.771Z,65.72
2023-01-04T18:44:34.899Z,66.37
2023-01-04T18:47:03.051Z,67.10
2023-01-04T18:49:30.067Z,66.29
2023-01-04T18:51:56.938Z,64.15
2023-01-04T18:54:24.132Z,63.22
2023-01-04T18:56:56.994Z,63.18
2023-01-04T18:59:28.628Z,63.30
2023-01-04T19:02:01.196Z,63.74
2023-01-04T19:04:33.678Z,64.17
2023-01-04T19:07:00.960Z,65.05
2023-01-04T19:09:28.063Z,65.02
2023-01-04T19:11:55.018Z,63.73
2023-01-04T19:14:22.306Z,62.95
2023-01-04T19:16:49.504Z,62.89
2023-01-04T21:21:12.273Z,70.22
2023-01-04T21:23:40.891Z,67.67
2023-01-04T21:26:08.502Z,64.90
2023-01-04T21:28:35.842Z,63.43
2023-01-04T21:31:02.770Z,62.39
2023-01-04T21:33:30.590Z,62.68
2023-01-04T21:35:57.468Z,62.43
2023-01-04T21:38:27.201Z,62.40
2023-01-04T21:40:54.106Z,62.36
2023-01-04T21:43:21.098Z,62.07
2023-01-04T21:45:48.034Z,62.53
2023-01-04T21:48:15.024Z,62.66
2023-01-04T21:50:41.903Z,61.34
2023-01-04T21:53:08.774Z,59.89
2023-01-04T21:55:36.322Z,59.59
2023-01-04T21:58:03.971Z,60.17
2023-01-04T22:00:30.951Z,60.06
2023-01-04T22:02:57.884Z,59.68
2023-01-04T22:05:24.942Z,59.96
2023-01-04T22:07:51.969Z,60.13
2023-01-04T22:10:19.143Z,60.56
2023-01-04T22:12:48.050Z,60.96
2023-01-04T22:15:15.162Z,61.57
2023-01-04T22:17:42.070Z,61.38
2023-01-04T22:20:09.919Z,60.12
2023-01-04T22:22:36.857Z,59.29
2023-01-04T22:25:03.964Z,59.24
2023-01-04T22:27:31.107Z,59.16
2023-01-04T22:29:58.138Z,59.71
2023-01-04T22:32:24.994Z,60.05
2023-01-04T22:34:52.045Z,59.98
2023-01-04T22:37:19.065Z,60.49
2023-01-04T22:39:46.000Z,60.97
2023-01-04T22:42:12.939Z,61.43
2023-01-04T22:44:39.941Z,61.38
2023-01-04T22:47:06.875Z,60.02
2023-01-04T22:49:33.836Z,59.13
2023-01-04T22:52:00.776Z,59.12
2023-01-04T22:54:27.702Z,59.12
2023-01-04T22:56:54.747Z,59.51
2023-01-04T22:59:23.049Z,59.77
2023-01-04T23:01:50.176Z,60.41
2023-01-04T23:04:19.019Z,60.70
2023-01-04T23:06:46.271Z,61.20
2023-01-04T23:09:15.163Z,61.35
2023-01-04T23:11:42.359Z,61.23
2023-01-04T23:14:14.983Z,59.69
2023-01-04T23:16:43.884Z,58.74
2023-01-04T23:19:13.832Z,58.55
2023-01-04T23:21:40.883Z,58.39
2023-01-04T23:24:09.887Z,58.66
2023-01-04T23:26:36.976Z,59.13
2023-01-04T23:29:03.971Z,59.19
2023-01-04T23:31:32.118Z,59.30
2023-01-04T23:34:01.452Z,59.37
2023-01-04T23:36:30.343Z,59.51
2023-01-04T23:39:01.283Z,59.68
2023-01-04T23:41:47.212Z,59.67
2023-01-04T23:44:15.278Z,58.46
2023-01-04T23:46:42.320Z,56.44
2023-01-04T23:49:10.057Z,55.57
2023-01-04T23:51:37.428Z,55.45
2023-01-04T23:54:05.046Z,55.05
2023-01-04T23:56:35.027Z,55.52
2023-01-04T23:59:02.452Z,55.98
